sensor_id;sensor_type;location;lat;lon;timestamp;temperature;humidity
22940;DHT22;11636;52.086;5.090;2023-08-31T00:00:29;12.50;99.90
22940;DHT22;11636;52.086;5.090;2023-08-31T00:03:25;12.50;99.90
22940;DHT22;11636;52.086;5.090;2023-08-31T00:06:12;12.50;99.90
22940;DHT22;11636;52.086;5.090;2023-08-31T00:09:06;12.50;99.90
22940;DHT22;11636;52.086;5.090;2023-08-31T00:12:03;12.50;99.90
22940;DHT22;11636;52.086;5.090;2023-08-31T00:14:50;12.50;99.90
22940;DHT22;11636;52.086;5.090;2023-08-31T00:17:44;12.60;99.90
22940;DHT22;11636;52.086;5.090;2023-08-31T00:20:38;12.60;99.90
22940;DHT22;11636;52.086;5.090;2023-08-31T00:23:25;12.70;99.90
22940;DHT22;11636;52.086;5.090;2023-08-31T00:26:19;12.60;99.90
22940;DHT22;11636;52.086;5.090;2023-08-31T00:29:08;12.70;99.90
22940;DHT22;11636;52.086;5.090;2023-08-31T00:32:03;12.70;99.90
22940;DHT22;11636;52.086;5.090;2023-08-31T00:34:57;12.60;99.90
22940;DHT22;11636;52.086;5.090;2023-08-31T00:37:44;12.70;99.90
22940;DHT22;11636;52.086;5.090;2023-08-31T00:40:40;12.60;99.90
22940;DHT22;11636;52.086;5.090;2023-08-31T00:43:44;12.60;99.90
22940;DHT22;11636;52.086;5.090;2023-08-31T00:46:32;12.70;99.90
22940;DHT22;11636;52.086;5.090;2023-08-31T00:49:26;12.70;99.90
22940;DHT22;11636;52.086;5.090;2023-08-31T00:52:13;12.80;99.90
22940;DHT22;11636;52.086;5.090;2023-08-31T00:55:07;12.80;99.90
22940;DHT22;11636;52.086;5.090;2023-08-31T00:57:55;12.80;99.90
22940;DHT22;11636;52.086;5.090;2023-08-31T01:04:10;12.80;99.90
22940;DHT22;11636;52.086;5.090;2023-08-31T01:07:29;12.80;99.90
22940;DHT22;11636;52.086;5.090;2023-08-31T01:10:48;12.80;99.90
22940;DHT22;11636;52.086;5.090;2023-08-31T01:13:41;12.80;99.90
22940;DHT22;11636;52.086;5.090;2023-08-31T01:16:39;12.90;99.90
22940;DHT22;11636;52.086;5.090;2023-08-31T01:19:50;12.90;99.90
22940;DHT22;11636;52.086;5.090;2023-08-31T01:22:55;12.90;99.90
22940;DHT22;11636;52.086;5.090;2023-08-31T01:25:49;12.90;99.90
22940;DHT22;11636;52.086;5.090;2023-08-31T01:28:38;12.90;99.90
22940;DHT22;11636;52.086;5.090;2023-08-31T01:31:32;12.90;99.90
22940;DHT22;11636;52.086;5.090;2023-08-31T01:34:19;12.90;99.90
22940;DHT22;11636;52.086;5.090;2023-08-31T01:37:19;12.90;99.90
22940;DHT22;11636;52.086;5.090;2023-08-31T01:40:29;12.90;99.90
22940;DHT22;11636;52.086;5.090;2023-08-31T01:43:25;12.80;99.90
22940;DHT22;11636;52.086;5.090;2023-08-31T01:46:14;12.80;99.90
22940;DHT22;11636;52.086;5.090;2023-08-31T01:49:10;12.80;99.90
22940;DHT22;11636;52.086;5.090;2023-08-31T01:51:57;12.80;99.90
22940;DHT22;11636;52.086;5.090;2023-08-31T01:54:51;12.80;99.90
22940;DHT22;11636;52.086;5.090;2023-08-31T01:57:45;12.80;99.90
22940;DHT22;11636;52.086;5.090;2023-08-31T02:00:32;12.80;99.90
22940;DHT22;11636;52.086;5.090;2023-08-31T02:03:31;12.80;99.90
22940;DHT22;11636;52.086;5.090;2023-08-31T02:06:18;12.80;99.90
22940;DHT22;11636;52.086;5.090;2023-08-31T02:09:13;12.90;99.90
22940;DHT22;11636;52.086;5.090;2023-08-31T02:12:07;12.80;99.90
22940;DHT22;11636;52.086;5.090;2023-08-31T02:14:56;12.80;99.90
22940;DHT22;11636;52.086;5.090;2023-08-31T02:17:50;12.70;99.90
22940;DHT22;11636;52.086;5.090;2023-08-31T02:20:37;12.80;99.90
22940;DHT22;11636;52.086;5.090;2023-08-31T02:23:31;12.80;99.90
22940;DHT22;11636;52.086;5.090;2023-08-31T02:26:25;12.80;99.90
22940;DHT22;11636;52.086;5.090;2023-08-31T02:29:19;12.80;99.90
22940;DHT22;11636;52.086;5.090;2023-08-31T02:32:07;12.80;99.90
22940;DHT22;11636;52.086;5.090;2023-08-31T02:35:02;12.80;99.90
22940;DHT22;11636;52.086;5.090;2023-08-31T02:37:56;12.80;99.90
22940;DHT22;11636;52.086;5.090;2023-08-31T02:40:50;12.80;99.90
22940;DHT22;11636;52.086;5.090;2023-08-31T02:43:44;12.80;99.90
22940;DHT22;11636;52.086;5.090;2023-08-31T02:46:31;12.90;99.90
22940;DHT22;11636;52.086;5.090;2023-08-31T02:49:25;12.90;99.90
22940;DHT22;11636;52.086;5.090;2023-08-31T02:52:12;12.90;99.90
22940;DHT22;11636;52.086;5.090;2023-08-31T02:55:06;12.90;99.90
22940;DHT22;11636;52.086;5.090;2023-08-31T02:58:00;12.80;99.90
22940;DHT22;11636;52.086;5.090;2023-08-31T03:00:48;12.80;99.90
22940;DHT22;11636;52.086;5.090;2023-08-31T03:03:42;12.80;99.90
22940;DHT22;11636;52.086;5.090;2023-08-31T03:06:40;12.80;99.90
22940;DHT22;11636;52.086;5.090;2023-08-31T03:09:49;12.80;99.90
22940;DHT22;11636;52.086;5.090;2023-08-31T03:12:44;12.80;99.90
22940;DHT22;11636;52.086;5.090;2023-08-31T03:15:38;12.80;99.90
22940;DHT22;11636;52.086;5.090;2023-08-31T03:18:25;12.80;99.90
22940;DHT22;11636;52.086;5.090;2023-08-31T03:21:19;12.80;99.90
22940;DHT22;11636;52.086;5.090;2023-08-31T03:24:07;12.80;99.90
22940;DHT22;11636;52.086;5.090;2023-08-31T03:27:00;12.80;99.90
22940;DHT22;11636;52.086;5.090;2023-08-31T03:29:47;12.80;99.90
22940;DHT22;11636;52.086;5.090;2023-08-31T03:32:41;12.90;99.90
22940;DHT22;11636;52.086;5.090;2023-08-31T03:35:32;12.90;99.90
22940;DHT22;11636;52.086;5.090;2023-08-31T03:38:25;12.90;99.90
22940;DHT22;11636;52.086;5.090;2023-08-31T03:41:12;12.90;99.90
22940;DHT22;11636;52.086;5.090;2023-08-31T03:44:06;12.90;99.90
22940;DHT22;11636;52.086;5.090;2023-08-31T03:46:53;13.00;99.90
22940;DHT22;11636;52.086;5.090;2023-08-31T03:49:47;13.00;99.90
22940;DHT22;11636;52.086;5.090;2023-08-31T03:52:34;13.10;99.90
22940;DHT22;11636;52.086;5.090;2023-08-31T03:55:28;13.10;99.90
22940;DHT22;11636;52.086;5.090;2023-08-31T03:58:15;13.10;99.90
22940;DHT22;11636;52.086;5.090;2023-08-31T04:01:10;13.10;99.90
22940;DHT22;11636;52.086;5.090;2023-08-31T04:04:04;13.10;99.90
22940;DHT22;11636;52.086;5.090;2023-08-31T04:06:52;13.10;99.90
22940;DHT22;11636;52.086;5.090;2023-08-31T04:09:46;13.10;99.90
22940;DHT22;11636;52.086;5.090;2023-08-31T04:12:33;13.10;99.90
22940;DHT22;11636;52.086;5.090;2023-08-31T04:15:28;13.00;99.90
22940;DHT22;11636;52.086;5.090;2023-08-31T04:18:29;12.90;99.90
22940;DHT22;11636;52.086;5.090;2023-08-31T04:21:23;12.80;99.90
22940;DHT22;11636;52.086;5.090;2023-08-31T04:24:10;12.90;99.90
22940;DHT22;11636;52.086;5.090;2023-08-31T04:27:04;12.90;99.90
22940;DHT22;11636;52.086;5.090;2023-08-31T04:29:51;12.90;99.90
22940;DHT22;11636;52.086;5.090;2023-08-31T04:32:45;12.90;99.90
22940;DHT22;11636;52.086;5.090;2023-08-31T04:35:33;13.00;99.90
22940;DHT22;11636;52.086;5.090;2023-08-31T04:38:27;13.00;99.90
22940;DHT22;11636;52.086;5.090;2023-08-31T04:41:21;13.00;99.90
22940;DHT22;11636;52.086;5.090;2023-08-31T04:44:15;12.90;99.90
22940;DHT22;11636;52.086;5.090;2023-08-31T04:47:04;12.90;99.90
22940;DHT22;11636;52.086;5.090;2023-08-31T04:49:57;12.80;99.90
22940;DHT22;11636;52.086;5.090;2023-08-31T04:52:52;12.80;99.90
22940;DHT22;11636;52.086;5.090;2023-08-31T04:55:39;12.70;99.90
22940;DHT22;11636;52.086;5.090;2023-08-31T04:58:33;12.60;99.90
22940;DHT22;11636;52.086;5.090;2023-08-31T05:01:27;12.60;99.90
22940;DHT22;11636;52.086;5.090;2023-08-31T05:04:21;12.60;99.90
22940;DHT22;11636;52.086;5.090;2023-08-31T05:07:10;12.60;99.90
22940;DHT22;11636;52.086;5.090;2023-08-31T05:10:10;12.60;99.90
22940;DHT22;11636;52.086;5.090;2023-08-31T05:12:57;12.60;99.90
22940;DHT22;11636;52.086;5.090;2023-08-31T05:15:51;12.60;99.90
22940;DHT22;11636;52.086;5.090;2023-08-31T05:18:39;12.60;99.90
22940;DHT22;11636;52.086;5.090;2023-08-31T05:21:33;12.60;99.90
22940;DHT22;11636;52.086;5.090;2023-08-31T05:24:20;12.70;99.90
22940;DHT22;11636;52.086;5.090;2023-08-31T05:27:14;12.70;99.90
22940;DHT22;11636;52.086;5.090;2023-08-31T05:30:02;12.70;99.90
22940;DHT22;11636;52.086;5.090;2023-08-31T05:32:55;12.80;99.90
22940;DHT22;11636;52.086;5.090;2023-08-31T05:35:43;12.90;99.90
22940;DHT22;11636;52.086;5.090;2023-08-31T05:38:36;12.90;99.90
22940;DHT22;11636;52.086;5.090;2023-08-31T05:41:23;13.00;99.90
22940;DHT22;11636;52.086;5.090;2023-08-31T05:44:17;13.00;99.90
22940;DHT22;11636;52.086;5.090;2023-08-31T05:47:11;12.90;99.90
22940;DHT22;11636;52.086;5.090;2023-08-31T05:49:58;12.80;99.90
22940;DHT22;11636;52.086;5.090;2023-08-31T05:52:53;12.80;99.90
22940;DHT22;11636;52.086;5.090;2023-08-31T05:55:40;12.90;99.90
22940;DHT22;11636;52.086;5.090;2023-08-31T05:58:35;12.90;99.90
22940;DHT22;11636;52.086;5.090;2023-08-31T06:01:22;12.80;99.90
22940;DHT22;11636;52.086;5.090;2023-08-31T06:04:16;12.80;99.90
22940;DHT22;11636;52.086;5.090;2023-08-31T06:07:11;12.80;99.90
22940;DHT22;11636;52.086;5.090;2023-08-31T06:10:05;12.80;99.90
22940;DHT22;11636;52.086;5.090;2023-08-31T06:12:52;12.80;99.90
22940;DHT22;11636;52.086;5.090;2023-08-31T06:15:46;12.80;99.90
22940;DHT22;11636;52.086;5.090;2023-08-31T06:18:33;12.90;99.90
22940;DHT22;11636;52.086;5.090;2023-08-31T06:21:27;13.00;99.90
22940;DHT22;11636;52.086;5.090;2023-08-31T06:24:21;13.10;99.90
22940;DHT22;11636;52.086;5.090;2023-08-31T06:27:16;13.20;99.90
22940;DHT22;11636;52.086;5.090;2023-08-31T06:30:11;13.30;99.90
22940;DHT22;11636;52.086;5.090;2023-08-31T06:33:09;13.30;99.90
22940;DHT22;11636;52.086;5.090;2023-08-31T06:35:57;13.30;99.90
22940;DHT22;11636;52.086;5.090;2023-08-31T06:38:51;13.40;99.90
22940;DHT22;11636;52.086;5.090;2023-08-31T06:41:38;13.50;99.90
22940;DHT22;11636;52.086;5.090;2023-08-31T06:44:32;13.50;99.90
22940;DHT22;11636;52.086;5.090;2023-08-31T06:47:26;13.40;99.90
22940;DHT22;11636;52.086;5.090;2023-08-31T06:50:14;13.50;99.90
22940;DHT22;11636;52.086;5.090;2023-08-31T06:53:07;13.50;99.90
22940;DHT22;11636;52.086;5.090;2023-08-31T06:55:55;13.50;99.90
22940;DHT22;11636;52.086;5.090;2023-08-31T06:58:48;13.50;99.90
22940;DHT22;11636;52.086;5.090;2023-08-31T07:01:36;13.40;99.90
22940;DHT22;11636;52.086;5.090;2023-08-31T07:04:29;13.30;99.90
22940;DHT22;11636;52.086;5.090;2023-08-31T07:07:23;13.40;99.90
22940;DHT22;11636;52.086;5.090;2023-08-31T07:10:11;13.50;99.90
22940;DHT22;11636;52.086;5.090;2023-08-31T07:13:05;13.70;99.90
22940;DHT22;11636;52.086;5.090;2023-08-31T07:15:52;13.80;99.90
22940;DHT22;11636;52.086;5.090;2023-08-31T07:18:46;13.80;99.90
22940;DHT22;11636;52.086;5.090;2023-08-31T07:21:40;13.80;99.90
22940;DHT22;11636;52.086;5.090;2023-08-31T07:24:33;13.80;99.90
22940;DHT22;11636;52.086;5.090;2023-08-31T07:27:23;13.80;99.90
22940;DHT22;11636;52.086;5.090;2023-08-31T07:30:16;13.80;99.90
22940;DHT22;11636;52.086;5.090;2023-08-31T07:33:05;13.80;99.90
22940;DHT22;11636;52.086;5.090;2023-08-31T07:36:16;13.90;99.90
22940;DHT22;11636;52.086;5.090;2023-08-31T07:39:10;14.00;99.90
22940;DHT22;11636;52.086;5.090;2023-08-31T07:42:05;14.00;99.90
22940;DHT22;11636;52.086;5.090;2023-08-31T07:44:58;13.90;99.90
22940;DHT22;11636;52.086;5.090;2023-08-31T07:47:46;13.90;99.90
22940;DHT22;11636;52.086;5.090;2023-08-31T07:50:43;13.80;99.90
22940;DHT22;11636;52.086;5.090;2023-08-31T07:53:30;13.80;99.90
22940;DHT22;11636;52.086;5.090;2023-08-31T07:56:23;13.90;99.90
22940;DHT22;11636;52.086;5.090;2023-08-31T07:59:18;14.00;99.90
22940;DHT22;11636;52.086;5.090;2023-08-31T08:02:05;14.00;99.90
22940;DHT22;11636;52.086;5.090;2023-08-31T08:05:00;14.00;99.90
22940;DHT22;11636;52.086;5.090;2023-08-31T08:07:47;14.20;99.90
22940;DHT22;11636;52.086;5.090;2023-08-31T08:10:41;14.30;99.90
22940;DHT22;11636;52.086;5.090;2023-08-31T08:13:30;14.40;99.90
22940;DHT22;11636;52.086;5.090;2023-08-31T08:16:23;14.40;99.90
22940;DHT22;11636;52.086;5.090;2023-08-31T08:19:11;14.50;99.90
22940;DHT22;11636;52.086;5.090;2023-08-31T08:22:04;14.60;99.90
22940;DHT22;11636;52.086;5.090;2023-08-31T08:24:59;14.70;99.90
22940;DHT22;11636;52.086;5.090;2023-08-31T08:27:47;14.80;99.90
22940;DHT22;11636;52.086;5.090;2023-08-31T08:30:40;14.90;99.90
22940;DHT22;11636;52.086;5.090;2023-08-31T08:33:28;14.90;99.90
22940;DHT22;11636;52.086;5.090;2023-08-31T08:36:21;14.90;99.90
22940;DHT22;11636;52.086;5.090;2023-08-31T08:39:09;15.00;99.90
22940;DHT22;11636;52.086;5.090;2023-08-31T08:42:04;15.10;99.90
22940;DHT22;11636;52.086;5.090;2023-08-31T08:44:52;15.20;99.90
22940;DHT22;11636;52.086;5.090;2023-08-31T08:47:46;15.40;99.90
22940;DHT22;11636;52.086;5.090;2023-08-31T08:50:40;15.60;99.90
22940;DHT22;11636;52.086;5.090;2023-08-31T08:53:27;15.90;99.90
22940;DHT22;11636;52.086;5.090;2023-08-31T08:56:21;16.00;99.90
22940;DHT22;11636;52.086;5.090;2023-08-31T08:59:09;16.20;99.90
22940;DHT22;11636;52.086;5.090;2023-08-31T09:02:08;16.30;99.90
22940;DHT22;11636;52.086;5.090;2023-08-31T09:04:57;16.30;99.90
22940;DHT22;11636;52.086;5.090;2023-08-31T09:08:05;16.30;99.90
22940;DHT22;11636;52.086;5.090;2023-08-31T09:10:56;16.40;99.90
22940;DHT22;11636;52.086;5.090;2023-08-31T09:13:51;16.60;99.90
22940;DHT22;11636;52.086;5.090;2023-08-31T09:16:52;16.60;99.90
22940;DHT22;11636;52.086;5.090;2023-08-31T09:19:39;16.50;99.90
22940;DHT22;11636;52.086;5.090;2023-08-31T09:22:33;16.50;99.90
22940;DHT22;11636;52.086;5.090;2023-08-31T09:25:21;16.60;99.90
22940;DHT22;11636;52.086;5.090;2023-08-31T09:28:16;16.80;99.90
22940;DHT22;11636;52.086;5.090;2023-08-31T09:31:10;16.90;99.90
22940;DHT22;11636;52.086;5.090;2023-08-31T09:33:57;17.00;99.90
22940;DHT22;11636;52.086;5.090;2023-08-31T09:36:51;17.20;99.90
22940;DHT22;11636;52.086;5.090;2023-08-31T09:39:45;17.30;99.90
22940;DHT22;11636;52.086;5.090;2023-08-31T09:42:39;17.40;99.90
22940;DHT22;11636;52.086;5.090;2023-08-31T09:45:30;17.50;99.90
22940;DHT22;11636;52.086;5.090;2023-08-31T09:48:33;17.60;99.90
22940;DHT22;11636;52.086;5.090;2023-08-31T09:51:22;17.60;99.90
22940;DHT22;11636;52.086;5.090;2023-08-31T09:54:19;17.40;99.90
22940;DHT22;11636;52.086;5.090;2023-08-31T09:57:09;17.20;99.90
22940;DHT22;11636;52.086;5.090;2023-08-31T10:00:07;17.20;99.90
22940;DHT22;11636;52.086;5.090;2023-08-31T10:03:03;17.30;99.90
22940;DHT22;11636;52.086;5.090;2023-08-31T10:05:50;17.40;99.90
22940;DHT22;11636;52.086;5.090;2023-08-31T10:08:44;17.60;99.90
22940;DHT22;11636;52.086;5.090;2023-08-31T10:11:32;17.80;99.90
22940;DHT22;11636;52.086;5.090;2023-08-31T10:14:28;17.90;99.90
22940;DHT22;11636;52.086;5.090;2023-08-31T10:17:23;18.00;99.90
22940;DHT22;11636;52.086;5.090;2023-08-31T10:20:18;18.10;99.90
22940;DHT22;11636;52.086;5.090;2023-08-31T10:23:13;18.10;99.90
22940;DHT22;11636;52.086;5.090;2023-08-31T10:26:02;18.00;99.90
22940;DHT22;11636;52.086;5.090;2023-08-31T10:28:58;18.00;99.90
22940;DHT22;11636;52.086;5.090;2023-08-31T10:31:47;18.20;99.90
22940;DHT22;11636;52.086;5.090;2023-08-31T10:34:43;18.30;99.90
22940;DHT22;11636;52.086;5.090;2023-08-31T10:37:31;18.30;99.90
22940;DHT22;11636;52.086;5.090;2023-08-31T10:40:25;18.30;99.90
22940;DHT22;11636;52.086;5.090;2023-08-31T10:43:16;18.50;99.90
22940;DHT22;11636;52.086;5.090;2023-08-31T10:46:35;18.60;99.90
22940;DHT22;11636;52.086;5.090;2023-08-31T10:49:29;18.80;99.90
22940;DHT22;11636;52.086;5.090;2023-08-31T10:52:19;18.90;99.90
22940;DHT22;11636;52.086;5.090;2023-08-31T10:55:31;19.00;99.90
22940;DHT22;11636;52.086;5.090;2023-08-31T10:58:32;19.00;99.90
22940;DHT22;11636;52.086;5.090;2023-08-31T11:07:49;19.10;99.90
22940;DHT22;11636;52.086;5.090;2023-08-31T11:10:52;19.20;99.90
22940;DHT22;11636;52.086;5.090;2023-08-31T11:13:39;19.30;99.90
22940;DHT22;11636;52.086;5.090;2023-08-31T11:16:33;19.40;99.90
22940;DHT22;11636;52.086;5.090;2023-08-31T11:19:20;19.40;99.90
22940;DHT22;11636;52.086;5.090;2023-08-31T11:22:14;19.40;99.90
22940;DHT22;11636;52.086;5.090;2023-08-31T11:25:01;19.60;99.90
22940;DHT22;11636;52.086;5.090;2023-08-31T11:28:00;19.70;99.90
22940;DHT22;11636;52.086;5.090;2023-08-31T11:30:48;19.80;99.90
22940;DHT22;11636;52.086;5.090;2023-08-31T11:33:42;19.90;99.90
22940;DHT22;11636;52.086;5.090;2023-08-31T11:36:29;19.80;99.90
22940;DHT22;11636;52.086;5.090;2023-08-31T11:39:24;19.70;99.90
22940;DHT22;11636;52.086;5.090;2023-08-31T11:42:20;19.50;99.90
22940;DHT22;11636;52.086;5.090;2023-08-31T11:45:09;19.40;99.90
22940;DHT22;11636;52.086;5.090;2023-08-31T11:48:05;19.50;99.90
22940;DHT22;11636;52.086;5.090;2023-08-31T11:50:53;19.50;99.90
22940;DHT22;11636;52.086;5.090;2023-08-31T11:53:47;19.60;99.90
22940;DHT22;11636;52.086;5.090;2023-08-31T11:56:41;19.70;99.90
22940;DHT22;11636;52.086;5.090;2023-08-31T11:59:37;19.90;99.90
22940;DHT22;11636;52.086;5.090;2023-08-31T12:02:24;19.80;99.90
22940;DHT22;11636;52.086;5.090;2023-08-31T12:05:18;19.70;99.90
22940;DHT22;11636;52.086;5.090;2023-08-31T12:08:12;19.90;99.90
22940;DHT22;11636;52.086;5.090;2023-08-31T12:11:00;20.00;99.90
22940;DHT22;11636;52.086;5.090;2023-08-31T12:13:54;20.00;99.90
22940;DHT22;11636;52.086;5.090;2023-08-31T12:16:41;20.20;99.90
22940;DHT22;11636;52.086;5.090;2023-08-31T12:19:38;20.30;99.90
22940;DHT22;11636;52.086;5.090;2023-08-31T12:22:32;20.30;99.50
22940;DHT22;11636;52.086;5.090;2023-08-31T12:25:26;20.20;99.70
22940;DHT22;11636;52.086;5.090;2023-08-31T12:28:14;20.10;99.90
22940;DHT22;11636;52.086;5.090;2023-08-31T12:31:08;20.10;99.90
22940;DHT22;11636;52.086;5.090;2023-08-31T12:34:02;20.10;99.90
22940;DHT22;11636;52.086;5.090;2023-08-31T12:36:54;20.10;99.90
22940;DHT22;11636;52.086;5.090;2023-08-31T12:39:47;20.20;99.80
22940;DHT22;11636;52.086;5.090;2023-08-31T12:42:34;20.30;99.40
22940;DHT22;11636;52.086;5.090;2023-08-31T12:45:28;20.20;99.90
22940;DHT22;11636;52.086;5.090;2023-08-31T12:48:15;20.30;99.90
22940;DHT22;11636;52.086;5.090;2023-08-31T12:51:09;20.50;99.60
22940;DHT22;11636;52.086;5.090;2023-08-31T12:54:03;20.50;98.40
22940;DHT22;11636;52.086;5.090;2023-08-31T12:56:57;20.30;98.10
22940;DHT22;11636;52.086;5.090;2023-08-31T12:59:51;20.10;98.60
22940;DHT22;11636;52.086;5.090;2023-08-31T13:02:41;20.10;99.20
22940;DHT22;11636;52.086;5.090;2023-08-31T13:05:39;20.20;99.30
22940;DHT22;11636;52.086;5.090;2023-08-31T13:08:33;20.30;97.60
22940;DHT22;11636;52.086;5.090;2023-08-31T13:11:27;20.40;97.20
22940;DHT22;11636;52.086;5.090;2023-08-31T13:14:14;20.50;97.40
22940;DHT22;11636;52.086;5.090;2023-08-31T13:17:08;20.50;97.50
22940;DHT22;11636;52.086;5.090;2023-08-31T13:20:02;20.70;97.90
22940;DHT22;11636;52.086;5.090;2023-08-31T13:22:50;20.80;97.70
22940;DHT22;11636;52.086;5.090;2023-08-31T13:25:44;20.80;97.10
22940;DHT22;11636;52.086;5.090;2023-08-31T13:28:38;20.90;97.20
22940;DHT22;11636;52.086;5.090;2023-08-31T13:31:32;20.90;97.90
22940;DHT22;11636;52.086;5.090;2023-08-31T13:34:20;21.10;98.00
22940;DHT22;11636;52.086;5.090;2023-08-31T13:37:14;21.20;97.50
22940;DHT22;11636;52.086;5.090;2023-08-31T13:40:01;21.20;97.60
22940;DHT22;11636;52.086;5.090;2023-08-31T13:42:59;21.20;97.40
22940;DHT22;11636;52.086;5.090;2023-08-31T13:45:56;21.10;96.40
22940;DHT22;11636;52.086;5.090;2023-08-31T13:48:43;20.80;97.00
22940;DHT22;11636;52.086;5.090;2023-08-31T13:51:37;20.70;97.50
22940;DHT22;11636;52.086;5.090;2023-08-31T13:54:25;20.70;97.60
22940;DHT22;11636;52.086;5.090;2023-08-31T13:57:19;20.80;97.80
22940;DHT22;11636;52.086;5.090;2023-08-31T14:00:07;21.10;98.00
22940;DHT22;11636;52.086;5.090;2023-08-31T14:03:04;21.30;96.50
22940;DHT22;11636;52.086;5.090;2023-08-31T14:05:52;21.40;95.70
22940;DHT22;11636;52.086;5.090;2023-08-31T14:08:46;21.20;96.30
22940;DHT22;11636;52.086;5.090;2023-08-31T14:11:33;21.20;96.60
22940;DHT22;11636;52.086;5.090;2023-08-31T14:14:27;21.20;97.10
22940;DHT22;11636;52.086;5.090;2023-08-31T14:17:21;21.30;97.30
22940;DHT22;11636;52.086;5.090;2023-08-31T14:20:08;21.40;97.40
22940;DHT22;11636;52.086;5.090;2023-08-31T14:23:04;21.60;97.70
22940;DHT22;11636;52.086;5.090;2023-08-31T14:26:02;21.60;97.20
22940;DHT22;11636;52.086;5.090;2023-08-31T14:28:56;21.60;97.20
22940;DHT22;11636;52.086;5.090;2023-08-31T14:31:43;21.70;97.20
22940;DHT22;11636;52.086;5.090;2023-08-31T14:34:37;21.70;97.00
22940;DHT22;11636;52.086;5.090;2023-08-31T14:37:31;21.80;96.90
22940;DHT22;11636;52.086;5.090;2023-08-31T14:40:25;21.70;95.70
22940;DHT22;11636;52.086;5.090;2023-08-31T14:43:19;21.60;96.30
22940;DHT22;11636;52.086;5.090;2023-08-31T14:46:06;21.60;96.50
22940;DHT22;11636;52.086;5.090;2023-08-31T14:49:00;21.60;96.00
22940;DHT22;11636;52.086;5.090;2023-08-31T14:51:47;21.50;96.20
22940;DHT22;11636;52.086;5.090;2023-08-31T14:54:41;21.60;96.20
22940;DHT22;11636;52.086;5.090;2023-08-31T14:57:28;21.60;96.50
22940;DHT22;11636;52.086;5.090;2023-08-31T15:00:22;21.80;97.40
22940;DHT22;11636;52.086;5.090;2023-08-31T15:03:16;21.90;96.50
22940;DHT22;11636;52.086;5.090;2023-08-31T15:06:04;22.00;96.70
22940;DHT22;11636;52.086;5.090;2023-08-31T15:08:57;21.90;95.70
22940;DHT22;11636;52.086;5.090;2023-08-31T15:11:44;21.80;96.10
22940;DHT22;11636;52.086;5.090;2023-08-31T15:14:38;21.70;96.30
22940;DHT22;11636;52.086;5.090;2023-08-31T15:17:25;21.60;96.50
22940;DHT22;11636;52.086;5.090;2023-08-31T15:20:19;21.70;96.80
22940;DHT22;11636;52.086;5.090;2023-08-31T15:23:06;21.70;96.30
22940;DHT22;11636;52.086;5.090;2023-08-31T15:26:01;21.60;96.50
22940;DHT22;11636;52.086;5.090;2023-08-31T15:28:56;21.70;96.70
22940;DHT22;11636;52.086;5.090;2023-08-31T15:31:43;21.80;97.00
22940;DHT22;11636;52.086;5.090;2023-08-31T15:34:37;21.80;96.50
22940;DHT22;11636;52.086;5.090;2023-08-31T15:37:31;21.80;96.40
22940;DHT22;11636;52.086;5.090;2023-08-31T15:40:25;21.70;96.30
22940;DHT22;11636;52.086;5.090;2023-08-31T15:43:13;21.50;96.40
22940;DHT22;11636;52.086;5.090;2023-08-31T15:46:06;21.40;96.70
22940;DHT22;11636;52.086;5.090;2023-08-31T15:48:54;21.20;97.10
22940;DHT22;11636;52.086;5.090;2023-08-31T15:51:47;21.00;97.30
22940;DHT22;11636;52.086;5.090;2023-08-31T15:54:42;20.70;97.30
22940;DHT22;11636;52.086;5.090;2023-08-31T15:57:30;20.40;97.90
22940;DHT22;11636;52.086;5.090;2023-08-31T16:00:23;20.20;98.40
22940;DHT22;11636;52.086;5.090;2023-08-31T16:03:11;20.10;98.50
22940;DHT22;11636;52.086;5.090;2023-08-31T16:06:05;20.00;98.60
22940;DHT22;11636;52.086;5.090;2023-08-31T16:08:55;19.90;98.90
22940;DHT22;11636;52.086;5.090;2023-08-31T16:11:48;19.80;99.00
22940;DHT22;11636;52.086;5.090;2023-08-31T16:14:35;19.70;99.20
22940;DHT22;11636;52.086;5.090;2023-08-31T16:17:29;19.60;99.50
22940;DHT22;11636;52.086;5.090;2023-08-31T16:20:23;19.50;99.80
22940;DHT22;11636;52.086;5.090;2023-08-31T16:23:11;19.50;99.90
22940;DHT22;11636;52.086;5.090;2023-08-31T16:26:05;19.50;99.90
22940;DHT22;11636;52.086;5.090;2023-08-31T16:28:52;19.40;99.60
22940;DHT22;11636;52.086;5.090;2023-08-31T16:31:46;19.30;99.80
22940;DHT22;11636;52.086;5.090;2023-08-31T16:34:34;19.20;99.80
22940;DHT22;11636;52.086;5.090;2023-08-31T16:37:27;19.20;99.90
22940;DHT22;11636;52.086;5.090;2023-08-31T16:40:15;19.20;99.90
22940;DHT22;11636;52.086;5.090;2023-08-31T16:43:09;19.10;99.90
22940;DHT22;11636;52.086;5.090;2023-08-31T16:46:03;19.10;99.90
22940;DHT22;11636;52.086;5.090;2023-08-31T16:48:51;19.00;99.90
22940;DHT22;11636;52.086;5.090;2023-08-31T16:51:45;19.00;99.90
22940;DHT22;11636;52.086;5.090;2023-08-31T16:54:32;19.00;99.90
22940;DHT22;11636;52.086;5.090;2023-08-31T16:57:26;18.90;99.90
22940;DHT22;11636;52.086;5.090;2023-08-31T17:00:21;18.90;99.90
22940;DHT22;11636;52.086;5.090;2023-08-31T17:03:15;18.90;99.90
22940;DHT22;11636;52.086;5.090;2023-08-31T17:06:03;18.80;99.90
22940;DHT22;11636;52.086;5.090;2023-08-31T17:08:56;18.70;99.90
22940;DHT22;11636;52.086;5.090;2023-08-31T17:11:50;18.60;99.90
22940;DHT22;11636;52.086;5.090;2023-08-31T17:14:37;18.50;99.90
22940;DHT22;11636;52.086;5.090;2023-08-31T17:17:34;18.50;99.90
22940;DHT22;11636;52.086;5.090;2023-08-31T17:20:22;18.60;99.90
22940;DHT22;11636;52.086;5.090;2023-08-31T17:23:15;18.50;99.90
22940;DHT22;11636;52.086;5.090;2023-08-31T17:26:04;18.50;99.90
22940;DHT22;11636;52.086;5.090;2023-08-31T17:28:58;18.50;99.90
22940;DHT22;11636;52.086;5.090;2023-08-31T17:31:45;18.40;99.90
22940;DHT22;11636;52.086;5.090;2023-08-31T17:34:38;18.30;99.90
22940;DHT22;11636;52.086;5.090;2023-08-31T17:37:33;18.30;99.90
22940;DHT22;11636;52.086;5.090;2023-08-31T17:40:21;18.20;99.90
22940;DHT22;11636;52.086;5.090;2023-08-31T17:43:14;18.20;99.90
22940;DHT22;11636;52.086;5.090;2023-08-31T17:46:03;18.10;99.90
22940;DHT22;11636;52.086;5.090;2023-08-31T17:48:57;18.10;99.90
22940;DHT22;11636;52.086;5.090;2023-08-31T17:51:45;18.00;99.90
22940;DHT22;11636;52.086;5.090;2023-08-31T17:54:39;18.00;99.90
22940;DHT22;11636;52.086;5.090;2023-08-31T17:57:33;17.80;99.90
22940;DHT22;11636;52.086;5.090;2023-08-31T18:00:21;17.70;99.90
22940;DHT22;11636;52.086;5.090;2023-08-31T18:03:15;17.70;99.90
22940;DHT22;11636;52.086;5.090;2023-08-31T18:06:02;17.60;99.90
22940;DHT22;11636;52.086;5.090;2023-08-31T18:08:56;17.50;99.90
22940;DHT22;11636;52.086;5.090;2023-08-31T18:11:44;17.50;99.90
22940;DHT22;11636;52.086;5.090;2023-08-31T18:14:37;17.40;99.90
22940;DHT22;11636;52.086;5.090;2023-08-31T18:17:25;17.40;99.90